Time;durP1;ratioP1;P1;durP2;ratioP2;P2;SDS_P1;SDS_P2;PMS_P1;PMS_P2;Temp;Humidity;BMP_temperature;BMP_pressure;BME280_temperature;BME280_humidity;BME280_pressure;Samples;Min_cycle;Max_cycle;Signal;HPM_P1;HPM_P2
2022/05/04 00:00:06;;;;;;;3.67;0.98;;;;;;;;;;5053108;28;20029;-73
2022/05/04 00:02:33;;;;;;;3.30;0.90;;;;;;;;;;5053809;28;20017;-72
2022/05/04 00:05:00;;;;;;;2.80;1.40;;;;;;;;;;5052522;28;20513;-71
2022/05/04 00:07:28;;;;;;;1.60;0.80;;;;;;;;;;5051071;28;20053;-70
2022/05/04 00:09:57;;;;;;;1.63;0.93;;;;;;;;;;5053346;28;20028;-72
2022/05/04 00:12:25;;;;;;;3.10;0.93;;;;;;;;;;5052364;28;20024;-71
2022/05/04 00:14:52;;;;;;;1.65;0.73;;;;;;;;;;5050853;28;20443;-71
2022/05/04 00:17:20;;;;;;;2.05;0.55;;;;;;;;;;5052259;28;20079;-72
2022/05/04 00:19:48;;;;;;;4.10;0.90;;;;;;;;;;5052327;28;20024;-72
2022/05/04 00:22:19;;;;;;;3.25;0.70;;;;;;;;;;5052078;28;20085;-73
2022/05/04 00:24:46;;;;;;;2.30;0.60;;;;;;;;;;5052335;28;20129;-72
2022/05/04 00:27:15;;;;;;;1.40;0.50;;;;;;;;;;5052105;28;20021;-73
2022/05/04 00:29:43;;;;;;;1.02;0.40;;;;;;;;;;5054802;28;20063;-74
2022/05/04 00:32:13;;;;;;;2.45;0.70;;;;;;;;;;5070206;28;20036;-74
2022/05/04 00:34:40;;;;;;;;;;;;;;;;;;5054799;28;20027;-74
2022/05/04 00:37:07;;;;;;;1.98;0.65;;;;;;;;;;5054820;28;19909;-75
2022/05/04 00:39:35;;;;;;;1.13;0.50;;;;;;;;;;5056201;28;20025;-75
2022/05/04 00:42:11;;;;;;;2.33;0.50;;;;;;;;;;5056019;28;20104;-73
2022/05/04 00:44:39;;;;;;;1.85;0.63;;;;;;;;;;5056913;28;20017;-75
2022/05/04 00:47:08;;;;;;;1.65;0.50;;;;;;;;;;5055842;28;20028;-76
2022/05/04 00:49:35;;;;;;;2.42;0.70;;;;;;;;;;5038637;28;20053;-76
2022/05/04 00:52:03;;;;;;;2.13;0.60;;;;;;;;;;5054937;28;20057;-75
2022/05/04 00:54:30;;;;;;;1.30;0.50;;;;;;;;;;5056936;28;20036;-76
2022/05/04 00:56:58;;;;;;;1.38;0.60;;;;;;;;;;5055749;28;20021;-75
2022/05/04 00:59:25;;;;;;;1.17;0.40;;;;;;;;;;5056230;28;20032;-76
2022/05/04 01:01:53;;;;;;;1.58;0.63;;;;;;;;;;5055838;28;20489;-75
2022/05/04 01:04:20;;;;;;;1.00;0.55;;;;;;;;;;5056492;28;20013;-76
2022/05/04 01:06:47;;;;;;;2.00;0.73;;;;;;;;;;5054508;28;20048;-74
2022/05/04 01:09:15;;;;;;;0.93;0.50;;;;;;;;;;5053903;28;20412;-76
2022/05/04 01:11:42;;;;;;;2.17;0.50;;;;;;;;;;5056364;28;20540;-76
2022/05/04 01:14:11;;;;;;;2.45;0.70;;;;;;;;;;5055434;28;20022;-74
2022/05/04 01:16:40;;;;;;;1.88;0.80;;;;;;;;;;5054516;28;20036;-75
2022/05/04 01:19:07;;;;;;;1.55;0.80;;;;;;;;;;5055552;28;20028;-74
2022/05/04 01:21:35;;;;;;;2.65;0.80;;;;;;;;;;5055501;28;20413;-75
2022/05/04 01:24:02;;;;;;;2.08;0.68;;;;;;;;;;5054427;28;20065;-75
2022/05/04 01:26:30;;;;;;;1.77;0.60;;;;;;;;;;5054483;28;20025;-76
2022/05/04 01:28:57;;;;;;;1.35;0.60;;;;;;;;;;5053517;28;20485;-74
2022/05/04 01:31:24;;;;;;;3.15;0.77;;;;;;;;;;5055007;28;20053;-75
2022/05/04 01:33:51;;;;;;;2.72;0.80;;;;;;;;;;5055745;28;20033;-75
2022/05/04 01:36:18;;;;;;;1.58;0.80;;;;;;;;;;5055460;28;20032;-75
2022/05/04 01:38:45;;;;;;;1.52;0.70;;;;;;;;;;5053540;28;20512;-74
2022/05/04 01:43:58;;;;;;;1.52;0.90;;;;;;;;;;5054906;28;20119;-75
2022/05/04 01:46:25;;;;;;;1.67;0.80;;;;;;;;;;5054951;28;20021;-76
2022/05/04 01:48:53;;;;;;;1.98;0.80;;;;;;;;;;5053895;28;20029;-75
2022/05/04 01:51:20;;;;;;;1.13;0.63;;;;;;;;;;5055148;28;20033;-74
2022/05/04 01:53:47;;;;;;;2.72;0.80;;;;;;;;;;5053528;28;20033;-73
2022/05/04 01:56:15;;;;;;;1.77;0.70;;;;;;;;;;5054999;28;20495;-72
2022/05/04 01:58:42;;;;;;;1.17;0.60;;;;;;;;;;5054713;28;20017;-74
2022/05/04 02:01:09;;;;;;;3.75;0.82;;;;;;;;;;5053167;28;20056;-74
2022/05/04 02:03:37;;;;;;;1.52;0.60;;;;;;;;;;5055017;28;20083;-73
2022/05/04 02:06:05;;;;;;;1.30;0.73;;;;;;;;;;5054831;28;20480;-72
2022/05/04 02:08:33;;;;;;;2.20;0.90;;;;;;;;;;5053957;28;20116;-74
2022/05/04 02:11:01;;;;;;;1.15;0.50;;;;;;;;;;5052974;28;20412;-73
2022/05/04 02:13:28;;;;;;;2.67;0.65;;;;;;;;;;5053274;28;20061;-74
2022/05/04 02:15:55;;;;;;;1.55;0.40;;;;;;;;;;5054278;28;20029;-74
2022/05/04 02:18:22;;;;;;;1.30;0.60;;;;;;;;;;5054363;28;20021;-73
2022/05/04 02:20:50;;;;;;;1.30;0.60;;;;;;;;;;5053415;28;20029;-75
2022/05/04 02:23:17;;;;;;;0.98;0.60;;;;;;;;;;5054608;28;20024;-76
2022/05/04 02:25:44;;;;;;;2.42;0.80;;;;;;;;;;5054265;28;20496;-75
2022/05/04 02:28:11;;;;;;;0.68;0.47;;;;;;;;;;5054233;28;20411;-74
2022/05/04 02:30:38;;;;;;;3.05;0.52;;;;;;;;;;5054399;28;20025;-74
2022/05/04 02:33:05;;;;;;;1.80;0.70;;;;;;;;;;5054618;28;20048;-72
2022/05/04 02:38:18;;;;;;;1.42;0.65;;;;;;;;;;5059465;28;20097;-73
2022/05/04 02:40:49;;;;;;;1.35;0.60;;;;;;;;;;5057950;28;20032;-74
2022/05/04 02:43:17;;;;;;;0.68;0.60;;;;;;;;;;5056601;28;20440;-74
2022/05/04 02:45:44;;;;;;;2.60;0.70;;;;;;;;;;5056910;28;20021;-74
2022/05/04 02:48:11;;;;;;;1.35;0.90;;;;;;;;;;5053081;28;20025;-75
2022/05/04 02:50:38;;;;;;;1.67;0.55;;;;;;;;;;5051673;28;20025;-74
2022/05/04 02:53:08;;;;;;;1.50;0.60;;;;;;;;;;5052802;28;20020;-74
2022/05/04 02:55:35;;;;;;;;;;;;;;;;;;5052985;28;20029;-74
2022/05/04 02:58:02;;;;;;;1.23;0.63;;;;;;;;;;5051997;28;20003;-74
2022/05/04 03:00:30;;;;;;;0.75;0.57;;;;;;;;;;5053518;28;20029;-74
2022/05/04 03:02:57;;;;;;;2.28;0.88;;;;;;;;;;5044749;28;20033;-74
2022/05/04 03:05:25;;;;;;;1.35;0.77;;;;;;;;;;5053144;28;20025;-73
2022/05/04 03:07:52;;;;;;;3.60;0.80;;;;;;;;;;5057138;28;20060;-74
2022/05/04 03:10:19;;;;;;;1.75;0.75;;;;;;;;;;5056424;28;20025;-75
2022/05/04 03:12:46;;;;;;;2.05;0.93;;;;;;;;;;5052584;28;20029;-74
2022/05/04 03:15:14;;;;;;;1.25;0.60;;;;;;;;;;5051976;28;20052;-74
2022/05/04 03:17:42;;;;;;;1.73;0.68;;;;;;;;;;5054070;28;20381;-74
2022/05/04 03:20:11;;;;;;;1.70;0.65;;;;;;;;;;5052428;28;20017;-74
2022/05/04 03:22:39;;;;;;;1.45;0.68;;;;;;;;;;5051971;28;20108;-75
2022/05/04 03:25:07;;;;;;;2.97;0.77;;;;;;;;;;5051917;28;20075;-75
2022/05/04 03:27:35;;;;;;;1.40;0.90;;;;;;;;;;5051956;28;20564;-75
2022/05/04 03:30:02;;;;;;;1.33;0.63;;;;;;;;;;5053364;28;20048;-75
2022/05/04 03:32:31;;;;;;;2.08;0.50;;;;;;;;;;5053285;28;20094;-75
2022/05/04 03:34:58;;;;;;;2.83;0.70;;;;;;;;;;5053184;28;20109;-75
2022/05/04 03:37:28;;;;;;;1.83;0.68;;;;;;;;;;5053290;28;20029;-74
2022/05/04 03:39:55;;;;;;;1.83;0.60;;;;;;;;;;5051421;28;20025;-74
2022/05/04 03:42:22;;;;;;;2.80;0.70;;;;;;;;;;5053196;28;20025;-73
2022/05/04 03:44:50;;;;;;;3.25;0.65;;;;;;;;;;5053478;28;20100;-75
2022/05/04 03:47:17;;;;;;;1.30;0.52;;;;;;;;;;5053574;28;20469;-74
2022/05/04 03:49:44;;;;;;;1.60;0.52;;;;;;;;;;5053078;28;20021;-73
2022/05/04 03:52:12;;;;;;;2.63;0.60;;;;;;;;;;5052780;28;20393;-73
2022/05/04 03:54:39;;;;;;;2.17;0.70;;;;;;;;;;5051929;28;20108;-73
2022/05/04 03:57:06;;;;;;;6.95;1.95;;;;;;;;;;5051453;28;20086;-76
2022/05/04 03:59:33;;;;;;;3.42;1.10;;;;;;;;;;5052959;28;20029;-75
2022/05/04 04:02:00;;;;;;;3.17;1.30;;;;;;;;;;5052067;28;20447;-75
2022/05/04 04:04:28;;;;;;;4.28;1.38;;;;;;;;;;5056534;28;20075;-75
2022/05/04 04:06:55;;;;;;;4.45;1.10;;;;;;;;;;5056715;28;20543;-75
2022/05/04 04:09:23;;;;;;;4.18;1.30;;;;;;;;;;5056008;28;20507;-75
2022/05/04 04:11:50;;;;;;;3.35;1.10;;;;;;;;;;5057198;28;20071;-75
2022/05/04 04:14:17;;;;;;;3.92;1.10;;;;;;;;;;5056696;28;20037;-73
2022/05/04 04:16:44;;;;;;;2.80;1.05;;;;;;;;;;5056718;28;20052;-75
2022/05/04 04:19:11;;;;;;;3.85;1.08;;;;;;;;;;5057241;28;20025;-75
2022/05/04 04:21:50;;;;;;;3.30;1.25;;;;;;;;;;5056878;28;20070;-74
2022/05/04 04:24:17;;;;;;;4.47;1.20;;;;;;;;;;5056633;28;20055;-74
2022/05/04 04:26:45;;;;;;;4.75;1.15;;;;;;;;;;5056057;28;20055;-74
2022/05/04 04:29:12;;;;;;;4.35;1.35;;;;;;;;;;5056206;28;20021;-73
2022/05/04 04:31:39;;;;;;;7.50;1.85;;;;;;;;;;5058221;28;20028;-75
2022/05/04 04:34:07;;;;;;;3.38;1.20;;;;;;;;;;5055366;28;20405;-75
2022/05/04 04:36:35;;;;;;;4.47;1.20;;;;;;;;;;5056316;28;20028;-75
2022/05/04 04:39:04;;;;;;;3.45;1.23;;;;;;;;;;5055229;28;20453;-75
2022/05/04 04:41:33;;;;;;;2.67;0.90;;;;;;;;;;5056180;28;20044;-76
2022/05/04 04:44:00;;;;;;;4.25;1.25;;;;;;;;;;5055390;28;20049;-75
2022/05/04 04:46:27;;;;;;;4.32;1.00;;;;;;;;;;5057046;28;20040;-76
2022/05/04 04:48:54;;;;;;;3.42;1.10;;;;;;;;;;5056446;28;20132;-76
2022/05/04 04:51:21;;;;;;;2.15;1.10;;;;;;;;;;5055412;28;20079;-75
2022/05/04 04:53:49;;;;;;;2.50;1.00;;;;;;;;;;5058321;28;20017;-74
2022/05/04 04:56:16;;;;;;;2.83;1.10;;;;;;;;;;5057327;28;20033;-76
2022/05/04 04:58:43;;;;;;;5.13;1.48;;;;;;;;;;5055317;28;20024;-75
2022/05/04 05:01:10;;;;;;;3.00;0.80;;;;;;;;;;5056056;28;20025;-75
2022/05/04 05:03:37;;;;;;;3.05;1.10;;;;;;;;;;5055965;28;20021;-75
2022/05/04 05:06:04;;;;;;;2.90;1.23;;;;;;;;;;5055499;28;20612;-75
2022/05/04 05:08:31;;;;;;;3.05;1.30;;;;;;;;;;5055980;28;20094;-75
2022/05/04 05:10:59;;;;;;;3.80;1.10;;;;;;;;;;5055650;28;20021;-75
2022/05/04 05:13:26;;;;;;;4.68;1.38;;;;;;;;;;5055576;28;20021;-75
2022/05/04 05:16:08;;;;;;;3.50;1.35;;;;;;;;;;5055613;28;20032;-74
2022/05/04 05:18:36;;;;;;;3.88;1.20;;;;;;;;;;5055499;28;20029;-74
2022/05/04 05:21:04;;;;;;;2.05;1.00;;;;;;;;;;5055799;28;20044;-74
2022/05/04 05:23:31;;;;;;;3.25;1.00;;;;;;;;;;5055317;28;20076;-75
2022/05/04 05:25:58;;;;;;;3.10;1.10;;;;;;;;;;5054066;28;20466;-74
2022/05/04 05:28:25;;;;;;;6.88;2.08;;;;;;;;;;5054148;28;20049;-75
2022/05/04 05:30:53;;;;;;;3.78;1.23;;;;;;;;;;5055562;28;20116;-74
2022/05/04 05:33:20;;;;;;;3.40;1.20;;;;;;;;;;5055367;28;20124;-75
2022/05/04 05:35:47;;;;;;;3.90;1.45;;;;;;;;;;5055238;28;20059;-76
2022/05/04 05:38:15;;;;;;;5.18;1.45;;;;;;;;;;5055387;28;20025;-76
2022/05/04 05:40:42;;;;;;;5.03;1.10;;;;;;;;;;5054969;28;20021;-75
2022/05/04 05:43:09;;;;;;;3.20;1.20;;;;;;;;;;5055245;28;20096;-75
2022/05/04 05:45:36;;;;;;;4.57;1.40;;;;;;;;;;5054088;28;20112;-75
2022/05/04 05:48:04;;;;;;;4.72;1.30;;;;;;;;;;5053990;28;20435;-74
2022/05/04 05:50:33;;;;;;;5.38;1.42;;;;;;;;;;5055239;28;20047;-74
2022/05/04 05:53:02;;;;;;;4.35;1.23;;;;;;;;;;5054944;28;20017;-75
2022/05/04 05:55:30;;;;;;;5.18;1.40;;;;;;;;;;5054990;28;20469;-74
2022/05/04 05:57:59;;;;;;;4.18;1.33;;;;;;;;;;5054098;28;20021;-75
2022/05/04 06:00:27;;;;;;;3.97;1.20;;;;;;;;;;5053364;28;20030;-75
2022/05/04 06:02:54;;;;;;;4.93;1.25;;;;;;;;;;5055770;28;20476;-75
2022/05/04 06:05:21;;;;;;;2.88;1.10;;;;;;;;;;5053877;28;20041;-75
2022/05/04 06:07:51;;;;;;;4.20;1.23;;;;;;;;;;5052550;28;20041;-75
2022/05/04 06:10:18;;;;;;;2.42;1.00;;;;;;;;;;5054975;28;20500;-75
2022/05/04 06:12:46;;;;;;;4.05;1.10;;;;;;;;;;5054481;28;20381;-75
2022/05/04 06:15:14;;;;;;;3.75;1.13;;;;;;;;;;5054506;28;20096;-74
2022/05/04 06:17:42;;;;;;;3.05;1.05;;;;;;;;;;5054050;28;20032;-76
2022/05/04 06:20:09;;;;;;;2.92;1.38;;;;;;;;;;5056045;28;20021;-76
2022/05/04 06:22:37;;;;;;;3.30;1.20;;;;;;;;;;5055037;28;20032;-76
2022/05/04 06:25:05;;;;;;;2.58;0.90;;;;;;;;;;5055308;28;20103;-75
2022/05/04 06:27:32;;;;;;;3.47;1.15;;;;;;;;;;5053711;28;20025;-75
2022/05/04 06:35:30;;;;;;;3.20;0.90;;;;;;;;;;5054589;28;20504;-74
2022/05/04 06:37:57;;;;;;;4.00;0.95;;;;;;;;;;5053233;28;20500;-74
2022/05/04 06:40:25;;;;;;;2.80;1.02;;;;;;;;;;5052710;28;20529;-73
2022/05/04 06:42:52;;;;;;;3.33;1.10;;;;;;;;;;5054177;28;20071;-73
2022/05/04 06:45:19;;;;;;;3.05;1.00;;;;;;;;;;5054496;28;20029;-75
2022/05/04 06:47:46;;;;;;;2.65;1.20;;;;;;;;;;5053566;28;20025;-75
2022/05/04 06:50:13;;;;;;;3.28;1.05;;;;;;;;;;5053704;28;20393;-75
2022/05/04 06:52:41;;;;;;;2.75;1.08;;;;;;;;;;5053581;28;20385;-75
2022/05/04 06:55:08;;;;;;;3.28;1.15;;;;;;;;;;5052583;28;20021;-75
2022/05/04 06:57:36;;;;;;;2.35;1.20;;;;;;;;;;5053359;28;20051;-74
2022/05/04 07:00:07;;;;;;;3.80;1.40;;;;;;;;;;5052074;28;20481;-75
2022/05/04 07:02:35;;;;;;;3.20;1.25;;;;;;;;;;5052098;28;20048;-75
2022/05/04 07:05:02;;;;;;;4.15;1.00;;;;;;;;;;5052099;28;20021;-76
2022/05/04 07:07:30;;;;;;;3.15;0.98;;;;;;;;;;5053230;28;20064;-76
2022/05/04 07:09:58;;;;;;;3.80;1.35;;;;;;;;;;5053486;28;20472;-75
2022/05/04 07:12:25;;;;;;;3.20;1.10;;;;;;;;;;5051952;28;20422;-72
2022/05/04 07:14:55;;;;;;;4.93;1.25;;;;;;;;;;5052787;28;20025;-71
2022/05/04 07:17:23;;;;;;;4.70;1.70;;;;;;;;;;5052693;28;20023;-72
2022/05/04 07:19:50;;;;;;;3.53;1.52;;;;;;;;;;5051608;28;20029;-71
2022/05/04 07:22:18;;;;;;;2.45;1.42;;;;;;;;;;5052878;28;20079;-72
2022/05/04 07:24:45;;;;;;;4.03;1.35;;;;;;;;;;5051786;28;20021;-71
2022/05/04 07:27:12;;;;;;;2.35;1.20;;;;;;;;;;5052940;28;20498;-71
2022/05/04 07:29:39;;;;;;;2.75;1.10;;;;;;;;;;5051574;28;20052;-72
2022/05/04 07:32:06;;;;;;;3.47;1.30;;;;;;;;;;5053350;28;20025;-72
2022/05/04 07:34:34;;;;;;;3.03;1.10;;;;;;;;;;5053041;28;20104;-71
2022/05/04 07:37:01;;;;;;;4.03;1.52;;;;;;;;;;5052050;28;20063;-71
2022/05/04 07:42:25;;;;;;;7.07;3.45;;;;;;;;;;5057062;28;20116;-70
2022/05/04 07:44:52;;;;;;;7.70;7.10;;;;;;;;;;5057055;28;20014;-70
2022/05/04 07:47:20;;;;;;;5.57;2.85;;;;;;;;;;5057246;28;20036;-71
2022/05/04 07:49:48;;;;;;;4.05;2.88;;;;;;;;;;5056753;28;20029;-70
2022/05/04 07:52:15;;;;;;;5.63;2.60;;;;;;;;;;5056820;28;20025;-70
2022/05/04 07:54:43;;;;;;;5.72;3.10;;;;;;;;;;5055960;28;20051;-70
2022/05/04 07:57:10;;;;;;;5.53;2.80;;;;;;;;;;5056723;28;20397;-70
2022/05/04 07:59:37;;;;;;;6.07;2.10;;;;;;;;;;5056865;28;20533;-71
2022/05/04 08:04:50;;;;;;;4.78;2.00;;;;;;;;;;5056815;28;20029;-70
2022/05/04 08:07:18;;;;;;;4.63;1.90;;;;;;;;;;5055348;28;20036;-71
2022/05/04 08:09:45;;;;;;;3.03;1.77;;;;;;;;;;5056748;28;20537;-71
2022/05/04 08:12:13;;;;;;;3.30;1.90;;;;;;;;;;5056628;28;20092;-70
2022/05/04 08:14:40;;;;;;;4.00;1.90;;;;;;;;;;5056956;28;20025;-70
2022/05/04 08:17:07;;;;;;;4.22;1.95;;;;;;;;;;5055170;28;20025;-70
2022/05/04 08:19:35;;;;;;;6.00;2.85;;;;;;;;;;5056177;28;20025;-71
2022/05/04 08:22:02;;;;;;;3.67;2.08;;;;;;;;;;5056542;28;20029;-71
2022/05/04 08:24:30;;;;;;;6.22;2.45;;;;;;;;;;5055552;28;20599;-70
2022/05/04 08:26:57;;;;;;;3.13;2.17;;;;;;;;;;5055004;28;20401;-71
2022/05/04 08:29:24;;;;;;;8.85;5.70;;;;;;;;;;5055016;28;20044;-71
2022/05/04 08:31:52;;;;;;;7.05;4.90;;;;;;;;;;5056179;28;20393;-71
2022/05/04 08:34:19;;;;;;;3.97;2.30;;;;;;;;;;5056119;28;20477;-71
2022/05/04 08:36:46;;;;;;;5.88;2.50;;;;;;;;;;5054924;28;20032;-71
2022/05/04 08:39:13;;;;;;;5.65;2.00;;;;;;;;;;5056265;28;20047;-72
2022/05/04 08:41:41;;;;;;;5.60;2.35;;;;;;;;;;5057078;28;20527;-71
2022/05/04 08:44:09;;;;;;;4.80;2.00;;;;;;;;;;5055953;28;20435;-71
2022/05/04 08:46:40;;;;;;;3.92;2.22;;;;;;;;;;5054734;28;20025;-71
2022/05/04 08:49:07;;;;;;;4.60;1.95;;;;;;;;;;5054881;28;20025;-71
2022/05/04 08:51:36;;;;;;;4.72;2.20;;;;;;;;;;5055974;28;20021;-72
2022/05/04 08:54:04;;;;;;;6.38;2.58;;;;;;;;;;5054512;28;20060;-72
2022/05/04 08:56:32;;;;;;;4.15;1.90;;;;;;;;;;5055561;28;20025;-70
2022/05/04 08:58:59;;;;;;;4.85;2.58;;;;;;;;;;5056124;28;20031;-73
2022/05/04 09:01:26;;;;;;;7.68;1.92;;;;;;;;;;5054211;28;20080;-72
2022/05/04 09:03:53;;;;;;;3.40;2.10;;;;;;;;;;5056080;28;20036;-72
2022/05/04 09:06:28;;;;;;;4.03;2.22;;;;;;;;;;5053796;28;20567;-71
2022/05/04 09:09:08;;;;;;;4.20;1.83;;;;;;;;;;5054856;28;20116;-71
2022/05/04 09:11:39;;;;;;;8.93;2.42;;;;;;;;;;5053995;28;20079;-72
2022/05/04 09:14:10;;;;;;;3.30;1.90;;;;;;;;;;5055055;28;20056;-72
2022/05/04 09:16:39;;;;;;;4.15;1.90;;;;;;;;;;5057463;28;20029;-71
2022/05/04 09:19:10;;;;;;;3.05;1.83;;;;;;;;;;5054958;28;20029;-72
2022/05/04 09:21:41;;;;;;;4.45;2.00;;;;;;;;;;5056981;28;20531;-72
2022/05/04 09:24:09;;;;;;;4.40;1.88;;;;;;;;;;5057495;28;20070;-72
2022/05/04 09:26:41;;;;;;;2.83;1.83;;;;;;;;;;5057021;28;20029;-71
2022/05/04 09:29:11;;;;;;;3.47;1.55;;;;;;;;;;5055174;28;20051;-72
2022/05/04 09:31:40;;;;;;;3.87;1.97;;;;;;;;;;5054865;28;20027;-71
2022/05/04 09:34:08;;;;;;;5.07;1.65;;;;;;;;;;5054945;28;20075;-70
2022/05/04 09:36:35;;;;;;;3.15;1.63;;;;;;;;;;5055195;28;20048;-71
2022/05/04 09:45:07;;;;;;;3.78;2.10;;;;;;;;;;5053822;28;20032;-71
2022/05/04 09:47:37;;;;;;;3.10;2.17;;;;;;;;;;5054488;28;20017;-71
2022/05/04 09:50:05;;;;;;;5.15;2.50;;;;;;;;;;5052875;28;20044;-71
2022/05/04 09:52:41;;;;;;;3.33;1.90;;;;;;;;;;5054174;28;20108;-71
2022/05/04 09:55:22;;;;;;;5.00;2.05;;;;;;;;;;5054302;28;20020;-71
2022/05/04 09:57:50;;;;;;;5.82;2.10;;;;;;;;;;5052814;28;20477;-71
2022/05/04 10:00:20;;;;;;;5.50;2.17;;;;;;;;;;5054429;28;20923;-71
2022/05/04 10:02:47;;;;;;;4.22;2.05;;;;;;;;;;5052892;28;20349;-71
2022/05/04 10:05:16;;;;;;;4.35;2.13;;;;;;;;;;5053899;28;20075;-72
2022/05/04 10:07:44;;;;;;;5.35;2.42;;;;;;;;;;5052463;28;20041;-72
2022/05/04 10:10:17;;;;;;;4.95;2.30;;;;;;;;;;5052752;28;20079;-73
2022/05/04 10:12:45;;;;;;;4.80;2.22;;;;;;;;;;5054137;28;20366;-73
2022/05/04 10:15:13;;;;;;;3.17;2.10;;;;;;;;;;5053944;28;20024;-73
2022/05/04 10:17:45;;;;;;;3.95;1.60;;;;;;;;;;5053779;28;20504;-73
2022/05/04 10:20:19;;;;;;;4.15;2.35;;;;;;;;;;5053996;28;20066;-72
2022/05/04 10:23:09;;;;;;;4.85;2.17;;;;;;;;;;5053875;28;20032;-73
2022/05/04 10:25:38;;;;;;;3.03;1.70;;;;;;;;;;5052554;28;20036;-73
2022/05/04 10:28:18;;;;;;;4.35;2.08;;;;;;;;;;5052626;28;20032;-73
2022/05/04 10:30:49;;;;;;;3.35;1.85;;;;;;;;;;5053542;28;20017;-73
2022/05/04 10:33:18;;;;;;;4.35;2.25;;;;;;;;;;5053537;28;20115;-73
2022/05/04 10:35:47;;;;;;;3.08;1.80;;;;;;;;;;5052252;28;20029;-73
2022/05/04 10:38:21;;;;;;;4.37;1.97;;;;;;;;;;5053508;28;20032;-73
2022/05/04 10:40:59;;;;;;;3.83;2.20;;;;;;;;;;5053346;28;20281;-74
2022/05/04 10:43:50;;;;;;;4.45;1.73;;;;;;;;;;5053465;28;20021;-74
2022/05/04 10:46:22;;;;;;;3.55;1.70;;;;;;;;;;5053434;28;20025;-73
2022/05/04 10:48:57;;;;;;;3.92;1.98;;;;;;;;;;5051904;28;20033;-74
2022/05/04 10:51:25;;;;;;;5.22;1.90;;;;;;;;;;5053338;28;20031;-74
2022/05/04 10:54:05;;;;;;;4.22;2.10;;;;;;;;;;5053413;28;20389;-74
2022/05/04 10:56:42;;;;;;;5.45;2.13;;;;;;;;;;5051918;28;20028;-74
2022/05/04 10:59:09;;;;;;;3.97;2.28;;;;;;;;;;5053332;28;20385;-73
2022/05/04 11:01:38;;;;;;;4.40;2.13;;;;;;;;;;5053213;28;20029;-74
2022/05/04 11:04:05;;;;;;;3.53;2.17;;;;;;;;;;5053184;28;20028;-73
2022/05/04 11:06:34;;;;;;;3.50;1.98;;;;;;;;;;5053125;28;20100;-74
2022/05/04 11:09:07;;;;;;;5.60;2.15;;;;;;;;;;5051674;28;20048;-74
2022/05/04 11:11:35;;;;;;;4.15;2.20;;;;;;;;;;5052612;28;20495;-74
2022/05/04 11:14:02;;;;;;;4.63;1.77;;;;;;;;;;5051531;28;20397;-73
2022/05/04 11:16:29;;;;;;;3.28;1.90;;;;;;;;;;5052992;28;20021;-73
2022/05/04 11:18:57;;;;;;;3.95;1.70;;;;;;;;;;5051696;28;20029;-73
2022/05/04 11:21:24;;;;;;;4.80;1.75;;;;;;;;;;5052816;28;20036;-73
2022/05/04 11:23:56;;;;;;;2.38;1.38;;;;;;;;;;5052804;28;20021;-73
2022/05/04 11:26:28;;;;;;;3.33;1.55;;;;;;;;;;5052947;28;20079;-73
2022/05/04 11:28:55;;;;;;;5.13;2.10;;;;;;;;;;5052877;28;20017;-73
2022/05/04 11:31:23;;;;;;;4.80;1.70;;;;;;;;;;5051612;28;20450;-73
2022/05/04 11:33:50;;;;;;;4.88;1.70;;;;;;;;;;5052802;28;20025;-74
2022/05/04 11:36:22;;;;;;;3.92;1.52;;;;;;;;;;5052928;28;20052;-73
2022/05/04 11:38:50;;;;;;;3.22;1.33;;;;;;;;;;5052767;28;20025;-73
2022/05/04 11:41:18;;;;;;;5.60;1.63;;;;;;;;;;5052596;28;20020;-73
2022/05/04 11:43:45;;;;;;;2.70;1.50;;;;;;;;;;5051375;28;20024;-73
2022/05/04 11:46:13;;;;;;;3.88;1.50;;;;;;;;;;5051340;28;20036;-74
2022/05/04 11:48:47;;;;;;;5.03;1.42;;;;;;;;;;5051466;28;20043;-74
2022/05/04 11:51:16;;;;;;;3.97;1.20;;;;;;;;;;5056097;28;20045;-72
2022/05/04 11:53:45;;;;;;;3.90;1.35;;;;;;;;;;5062993;28;20021;-72
2022/05/04 11:56:12;;;;;;;2.42;1.20;;;;;;;;;;5057311;28;20029;-73
2022/05/04 11:58:40;;;;;;;3.70;1.20;;;;;;;;;;5052064;28;20025;-74
2022/05/04 12:01:10;;;;;;;2.55;1.55;;;;;;;;;;5052630;28;20057;-73
2022/05/04 12:03:39;;;;;;;3.95;1.50;;;;;;;;;;5051235;28;20079;-74
2022/05/04 12:06:09;;;;;;;2.72;1.20;;;;;;;;;;5052497;28;20031;-72
2022/05/04 12:08:37;;;;;;;4.95;1.42;;;;;;;;;;5052291;28;20572;-73
2022/05/04 12:11:06;;;;;;;2.55;1.10;;;;;;;;;;5051076;28;20078;-73
2022/05/04 12:13:35;;;;;;;4.05;1.27;;;;;;;;;;5052433;28;20028;-73
2022/05/04 12:16:02;;;;;;;4.72;1.50;;;;;;;;;;5052395;28;20434;-73
2022/05/04 12:18:32;;;;;;;2.05;0.95;;;;;;;;;;5051183;28;20029;-73
2022/05/04 12:21:05;;;;;;;4.55;1.20;;;;;;;;;;5052421;28;20040;-72
2022/05/04 12:23:32;;;;;;;3.88;1.23;;;;;;;;;;5052003;28;20032;-73
2022/05/04 12:25:59;;;;;;;2.50;1.15;;;;;;;;;;5055999;28;20017;-73
2022/05/04 12:28:27;;;;;;;1.85;1.17;;;;;;;;;;5063923;28;20029;-73
2022/05/04 12:33:39;;;;;;;2.90;1.00;;;;;;;;;;5057861;28;20036;-73
2022/05/04 12:36:08;;;;;;;2.08;0.90;;;;;;;;;;5057177;28;20032;-72
2022/05/04 12:38:36;;;;;;;6.68;1.27;;;;;;;;;;5055071;28;20036;-71
2022/05/04 12:41:07;;;;;;;2.42;1.17;;;;;;;;;;5054542;28;20032;-73
2022/05/04 12:43:37;;;;;;;4.63;1.25;;;;;;;;;;5056032;28;20036;-72
2022/05/04 12:46:08;;;;;;;2.67;0.90;;;;;;;;;;5056604;28;20025;-72
2022/05/04 12:48:37;;;;;;;1.73;1.15;;;;;;;;;;5055238;28;20080;-73
2022/05/04 12:51:04;;;;;;;1.55;0.80;;;;;;;;;;5056810;28;20032;-73
2022/05/04 12:53:31;;;;;;;2.88;0.82;;;;;;;;;;5054800;28;20541;-73
2022/05/04 12:58:44;;;;;;;3.05;1.25;;;;;;;;;;5055885;28;20051;-73
2022/05/04 13:01:11;;;;;;;3.45;0.90;;;;;;;;;;5055223;28;20052;-73
2022/05/04 13:03:38;;;;;;;4.65;1.10;;;;;;;;;;5054938;28;20074;-72
2022/05/04 13:06:06;;;;;;;3.58;1.00;;;;;;;;;;5057427;28;20029;-72
2022/05/04 13:08:33;;;;;;;3.25;0.82;;;;;;;;;;5056883;28;20068;-72
2022/05/04 13:11:00;;;;;;;3.47;1.10;;;;;;;;;;5054929;28;20485;-73
2022/05/04 13:13:27;;;;;;;2.60;1.00;;;;;;;;;;5053788;28;20033;-73
2022/05/04 13:15:54;;;;;;;2.33;1.13;;;;;;;;;;5055297;28;20104;-72
2022/05/04 13:18:22;;;;;;;1.73;0.77;;;;;;;;;;5055113;28;20025;-73
2022/05/04 13:20:52;;;;;;;2.97;1.05;;;;;;;;;;5057963;28;20473;-73
2022/05/04 13:23:20;;;;;;;3.05;0.90;;;;;;;;;;5055290;28;20082;-73
2022/05/04 13:25:47;;;;;;;3.78;1.17;;;;;;;;;;5054905;28;20044;-73
2022/05/04 13:28:14;;;;;;;4.10;1.30;;;;;;;;;;5054746;28;20028;-73
2022/05/04 13:30:42;;;;;;;3.05;1.00;;;;;;;;;;5054819;28;20044;-72
2022/05/04 13:33:10;;;;;;;5.35;1.10;;;;;;;;;;5054750;28;20416;-72
2022/05/04 13:35:38;;;;;;;2.33;0.80;;;;;;;;;;5052735;28;20591;-73
2022/05/04 13:38:05;;;;;;;1.83;1.00;;;;;;;;;;5053537;28;20503;-74
2022/05/04 13:40:33;;;;;;;2.75;1.02;;;;;;;;;;5054602;28;20021;-73
2022/05/04 13:43:01;;;;;;;2.53;0.85;;;;;;;;;;5054647;28;20021;-73
2022/05/04 13:45:28;;;;;;;2.25;0.90;;;;;;;;;;5054444;28;20023;-73
2022/05/04 13:47:56;;;;;;;1.85;0.65;;;;;;;;;;5053162;28;20017;-73
2022/05/04 13:53:16;;;;;;;2.80;0.80;;;;;;;;;;5058375;28;20032;-73
2022/05/04 13:55:47;;;;;;;5.68;1.08;;;;;;;;;;5056939;28;20024;-73
2022/05/04 13:58:15;;;;;;;3.35;1.00;;;;;;;;;;5055873;28;20056;-73
2022/05/04 14:00:43;;;;;;;1.83;0.85;;;;;;;;;;5054814;28;20033;-73
2022/05/04 14:03:10;;;;;;;2.63;0.80;;;;;;;;;;5053084;28;20025;-73
2022/05/04 14:05:38;;;;;;;1.83;0.80;;;;;;;;;;5053520;28;20418;-73
2022/05/04 14:08:05;;;;;;;2.08;0.90;;;;;;;;;;5054136;28;20037;-72
2022/05/04 14:10:34;;;;;;;2.05;0.77;;;;;;;;;;5054502;28;20025;-74
2022/05/04 14:13:01;;;;;;;2.72;0.98;;;;;;;;;;5053273;28;20028;-72
2022/05/04 14:15:29;;;;;;;3.50;0.80;;;;;;;;;;5055332;28;20025;-73
2022/05/04 14:17:56;;;;;;;2.72;0.80;;;;;;;;;;5054570;28;20017;-72
2022/05/04 14:20:24;;;;;;;2.17;1.00;;;;;;;;;;5054575;28;20029;-72
2022/05/04 14:22:51;;;;;;;2.35;0.90;;;;;;;;;;5053713;28;20036;-72
2022/05/04 14:25:18;;;;;;;2.33;0.95;;;;;;;;;;5054378;28;20020;-73
2022/05/04 14:27:45;;;;;;;4.65;0.90;;;;;;;;;;5056007;28;20029;-72
2022/05/04 14:30:13;;;;;;;1.85;0.70;;;;;;;;;;5054310;28;20020;-73
2022/05/04 14:32:43;;;;;;;3.00;0.98;;;;;;;;;;5053311;28;20112;-73
2022/05/04 14:35:10;;;;;;;;;;;;;;;;;;5055526;28;20027;-74
2022/05/04 14:37:40;;;;;;;3.00;1.00;;;;;;;;;;5054588;28;19927;-73
2022/05/04 14:40:07;;;;;;;4.57;1.25;;;;;;;;;;5054802;28;20017;-75
2022/05/04 14:42:34;;;;;;;4.20;1.30;;;;;;;;;;5054569;28;20104;-74
2022/05/04 14:45:02;;;;;;;2.90;1.02;;;;;;;;;;5059199;28;20017;-73
2022/05/04 14:47:29;;;;;;;2.80;0.80;;;;;;;;;;5054444;28;20052;-73
2022/05/04 14:49:56;;;;;;;2.58;0.93;;;;;;;;;;5054810;28;20113;-73
2022/05/04 14:52:23;;;;;;;3.15;1.15;;;;;;;;;;5053210;28;20036;-73
2022/05/04 14:54:50;;;;;;;2.00;1.30;;;;;;;;;;5053241;28;20435;-74
2022/05/04 14:57:19;;;;;;;4.28;1.17;;;;;;;;;;5054709;28;20032;-73
2022/05/04 14:59:47;;;;;;;1.80;0.90;;;;;;;;;;5054837;28;20531;-72
2022/05/04 15:02:14;;;;;;;3.17;0.90;;;;;;;;;;5052020;28;20074;-73
2022/05/04 15:07:26;;;;;;;4.78;1.30;;;;;;;;;;5053285;28;20409;-73
2022/05/04 15:09:54;;;;;;;2.15;0.98;;;;;;;;;;5055250;28;20013;-74
2022/05/04 15:12:24;;;;;;;1.98;1.10;;;;;;;;;;5057059;28;20025;-74
2022/05/04 15:14:51;;;;;;;5.35;1.42;;;;;;;;;;5053172;28;20489;-74
2022/05/04 15:17:18;;;;;;;3.65;1.08;;;;;;;;;;5053005;28;20025;-73
2022/05/04 15:19:45;;;;;;;3.30;1.45;;;;;;;;;;5053749;28;20083;-73
2022/05/04 15:22:13;;;;;;;3.75;1.98;;;;;;;;;;5052419;28;20120;-74